Time;durP1;ratioP1;P1;durP2;ratioP2;P2;SDS_P1;SDS_P2;PMS_P1;PMS_P2;Temp;Humidity;BMP_temperature;BMP_pressure;BME280_temperature;BME280_humidity;BME280_pressure;Samples;Min_cycle;Max_cycle;Signal;HPM_P1;HPM_P2
2024/01/07 00:01:13;;;;;;;19.73;16.23;;;;;;;;;;5136170;27;20043;-79
2024/01/07 00:03:42;;;;;;;14.18;11.13;;;;;;;;;;5136024;27;20395;-79
2024/01/07 00:06:08;;;;;;;19.05;16.60;;;;;;;;;;5136181;27;20046;-79
2024/01/07 00:08:35;;;;;;;21.25;16.92;;;;;;;;;;5136198;27;20497;-78
2024/01/07 00:11:01;;;;;;;17.75;15.35;;;;;;;;;;5136370;27;20550;-79
2024/01/07 00:13:27;;;;;;;17.02;12.35;;;;;;;;;;5136172;27;20039;-79
2024/01/07 00:15:55;;;;;;;18.27;15.50;;;;;;;;;;5118175;27;20047;-79
2024/01/07 00:18:22;;;;;;;16.42;13.77;;;;;;;;;;5117869;27;20115;-79
2024/01/07 00:20:48;;;;;;;10.20;8.23;;;;;;;;;;5136039;27;20062;-79
2024/01/07 00:23:14;;;;;;;15.43;12.75;;;;;;;;;;5117402;27;20047;-79
2024/01/07 00:25:40;;;;;;;21.13;16.58;;;;;;;;;;5135952;27;20047;-79
2024/01/07 00:28:06;;;;;;;19.10;14.70;;;;;;;;;;5136388;27;20074;-79
2024/01/07 00:30:32;;;;;;;21.05;17.02;;;;;;;;;;5118337;27;20046;-79
2024/01/07 00:32:58;;;;;;;21.45;16.17;;;;;;;;;;5117911;27;20129;-79
2024/01/07 00:35:24;;;;;;;19.05;15.05;;;;;;;;;;5135412;27;20525;-79
2024/01/07 00:37:51;;;;;;;18.95;14.23;;;;;;;;;;5135930;27;20439;-79
2024/01/07 00:40:17;;;;;;;19.92;16.33;;;;;;;;;;5117015;27;20055;-79
2024/01/07 00:42:43;;;;;;;27.85;14.52;;;;;;;;;;5117796;27;20078;-79
2024/01/07 00:45:09;;;;;;;19.17;15.40;;;;;;;;;;5135210;27;20059;-79
2024/01/07 00:47:35;;;;;;;20.83;16.25;;;;;;;;;;5083635;27;20093;-79
2024/01/07 00:50:01;;;;;;;19.02;13.93;;;;;;;;;;5135806;27;20043;-79
2024/01/07 00:52:27;;;;;;;12.57;10.63;;;;;;;;;;5117317;27;20131;-79
2024/01/07 00:54:53;;;;;;;18.77;13.38;;;;;;;;;;5134891;27;20042;-79
2024/01/07 00:57:20;;;;;;;16.23;11.95;;;;;;;;;;5135014;27;20483;-79
2024/01/07 00:59:46;;;;;;;14.15;12.38;;;;;;;;;;5135231;27;20047;-78
2024/01/07 01:02:12;;;;;;;13.80;11.98;;;;;;;;;;5135192;27;20107;-78
2024/01/07 01:04:41;;;;;;;14.13;11.25;;;;;;;;;;5116813;27;20051;-78
2024/01/07 01:07:07;;;;;;;16.23;11.30;;;;;;;;;;5134774;27;20095;-79
2024/01/07 01:09:34;;;;;;;13.43;12.00;;;;;;;;;;5135148;27;20050;-78
2024/01/07 01:12:00;;;;;;;10.90;8.82;;;;;;;;;;5134563;27;20055;-79
2024/01/07 01:14:27;;;;;;;13.05;10.55;;;;;;;;;;5116290;27;20075;-79
2024/01/07 01:16:53;;;;;;;14.25;10.35;;;;;;;;;;5116286;27;20043;-78
2024/01/07 01:19:20;;;;;;;11.38;9.50;;;;;;;;;;5116794;28;20109;-79
2024/01/07 01:21:46;;;;;;;12.27;10.57;;;;;;;;;;5134963;27;20051;-78
2024/01/07 01:24:12;;;;;;;13.35;10.48;;;;;;;;;;5116256;27;20398;-79
2024/01/07 01:26:39;;;;;;;9.18;6.18;;;;;;;;;;5134756;27;20046;-78
2024/01/07 01:29:05;;;;;;;11.82;10.23;;;;;;;;;;5134790;27;20137;-79
2024/01/07 01:31:31;;;;;;;12.70;7.88;;;;;;;;;;5134774;27;20406;-79
2024/01/07 01:33:57;;;;;;;13.27;10.13;;;;;;;;;;5134790;27;20047;-78
2024/01/07 01:36:23;;;;;;;10.40;8.05;;;;;;;;;;5134772;27;20129;-78
2024/01/07 01:38:50;;;;;;;7.03;5.65;;;;;;;;;;5116497;28;20546;-79
2024/01/07 01:41:19;;;;;;;8.90;7.00;;;;;;;;;;5134696;28;20047;-79
2024/01/07 01:43:45;;;;;;;12.43;9.60;;;;;;;;;;5134520;28;20043;-79
2024/01/07 01:46:11;;;;;;;13.85;10.32;;;;;;;;;;5115696;28;20134;-79
2024/01/07 01:48:37;;;;;;;9.88;8.23;;;;;;;;;;5134646;28;20043;-79
2024/01/07 01:51:03;;;;;;;11.25;9.85;;;;;;;;;;5134636;28;20060;-79
2024/01/07 01:53:29;;;;;;;15.32;11.20;;;;;;;;;;5116082;28;20134;-79
2024/01/07 01:55:56;;;;;;;14.68;10.70;;;;;;;;;;5134500;28;20043;-78
2024/01/07 01:58:22;;;;;;;12.32;10.40;;;;;;;;;;5135135;28;20047;-79
2024/01/07 02:00:50;;;;;;;12.82;10.23;;;;;;;;;;5116300;28;20390;-79
2024/01/07 02:03:16;;;;;;;11.57;9.40;;;;;;;;;;5134549;28;20047;-79
2024/01/07 02:05:43;;;;;;;11.70;8.27;;;;;;;;;;5134384;28;20042;-79
2024/01/07 02:08:09;;;;;;;12.05;10.57;;;;;;;;;;5116678;28;20391;-79
2024/01/07 02:10:36;;;;;;;11.93;9.85;;;;;;;;;;5134257;28;20055;-79
2024/01/07 02:13:05;;;;;;;14.20;10.30;;;;;;;;;;5134411;28;20502;-79
2024/01/07 02:15:31;;;;;;;10.98;8.63;;;;;;;;;;5134807;28;20042;-79
2024/01/07 02:17:58;;;;;;;11.07;7.95;;;;;;;;;;5116964;27;20092;-79
2024/01/07 02:20:24;;;;;;;12.15;10.32;;;;;;;;;;5138627;27;20051;-79
2024/01/07 02:22:51;;;;;;;6.80;4.75;;;;;;;;;;5137882;27;20047;-79
2024/01/07 02:25:17;;;;;;;11.85;9.90;;;;;;;;;;5137893;27;20490;-79
2024/01/07 02:27:43;;;;;;;11.60;10.35;;;;;;;;;;5120061;27;20045;-79
2024/01/07 02:30:09;;;;;;;14.98;12.13;;;;;;;;;;5120126;27;20368;-79
2024/01/07 02:32:37;;;;;;;15.80;13.95;;;;;;;;;;5138149;27;20406;-79
2024/01/07 02:35:04;;;;;;;14.70;12.02;;;;;;;;;;5138059;27;20162;-79
2024/01/07 02:37:30;;;;;;;14.27;10.90;;;;;;;;;;5137984;27;20479;-79
2024/01/07 02:39:56;;;;;;;14.52;12.60;;;;;;;;;;5137985;27;20043;-79
2024/01/07 02:42:22;;;;;;;14.50;11.77;;;;;;;;;;5137895;27;20039;-79
2024/01/07 02:44:48;;;;;;;11.60;10.35;;;;;;;;;;5137483;27;20055;-79
2024/01/07 02:47:14;;;;;;;9.38;8.35;;;;;;;;;;5119532;27;20478;-79
2024/01/07 02:49:40;;;;;;;11.88;10.40;;;;;;;;;;5102874;27;20047;-79
2024/01/07 02:52:06;;;;;;;11.98;10.07;;;;;;;;;;5137680;27;20039;-79
2024/01/07 02:54:32;;;;;;;16.40;9.77;;;;;;;;;;5118814;27;20081;-79
2024/01/07 02:56:58;;;;;;;11.48;9.80;;;;;;;;;;5137488;27;20039;-79
2024/01/07 02:59:24;;;;;;;10.13;9.00;;;;;;;;;;5119810;27;20147;-79
2024/01/07 03:01:50;;;;;;;11.32;9.57;;;;;;;;;;5137483;27;20047;-79
2024/01/07 03:04:17;;;;;;;11.07;9.05;;;;;;;;;;5137399;27;20065;-79
2024/01/07 03:06:43;;;;;;;9.43;7.97;;;;;;;;;;5119112;27;20083;-79
2024/01/07 03:09:10;;;;;;;9.02;8.13;;;;;;;;;;5137299;27;20082;-79
2024/01/07 03:11:40;;;;;;;10.95;8.45;;;;;;;;;;5137289;27;20051;-79
2024/01/07 03:14:06;;;;;;;10.75;8.93;;;;;;;;;;5119320;27;20055;-79
2024/01/07 03:16:32;;;;;;;9.90;8.35;;;;;;;;;;5119128;27;20051;-79
2024/01/07 03:18:59;;;;;;;11.57;8.98;;;;;;;;;;5118872;27;20483;-79
2024/01/07 03:21:25;;;;;;;10.95;9.15;;;;;;;;;;5137132;27;20403;-79
2024/01/07 03:23:51;;;;;;;12.30;10.13;;;;;;;;;;5136748;27;20055;-79
2024/01/07 03:26:18;;;;;;;11.10;9.77;;;;;;;;;;5119049;27;20065;-79
2024/01/07 03:28:45;;;;;;;11.98;10.77;;;;;;;;;;5119336;27;20047;-79
2024/01/07 03:31:15;;;;;;;11.95;10.65;;;;;;;;;;5136837;27;20050;-79
2024/01/07 03:33:41;;;;;;;10.38;9.35;;;;;;;;;;5118668;27;20047;-79
2024/01/07 03:36:11;;;;;;;11.27;9.95;;;;;;;;;;5118718;27;20130;-79
2024/01/07 03:38:38;;;;;;;12.00;10.65;;;;;;;;;;5118666;27;20043;-79
2024/01/07 03:41:04;;;;;;;11.82;9.85;;;;;;;;;;5136870;27;20050;-79
2024/01/07 03:43:30;;;;;;;10.60;8.63;;;;;;;;;;5118385;27;20390;-79
2024/01/07 03:45:56;;;;;;;10.30;6.88;;;;;;;;;;5117863;27;20474;-79
2024/01/07 03:48:22;;;;;;;12.18;9.77;;;;;;;;;;5136738;27;20051;-79
2024/01/07 03:50:49;;;;;;;10.02;7.68;;;;;;;;;;5118851;27;20088;-78
2024/01/07 03:53:15;;;;;;;11.18;9.00;;;;;;;;;;5117973;27;20471;-79
2024/01/07 03:55:41;;;;;;;5.22;4.70;;;;;;;;;;5118175;27;20055;-79
2024/01/07 03:58:07;;;;;;;9.65;8.02;;;;;;;;;;5118062;27;20044;-79
2024/01/07 04:00:33;;;;;;;13.15;11.75;;;;;;;;;;5136415;27;20087;-79
2024/01/07 04:02:59;;;;;;;9.77;8.20;;;;;;;;;;5136373;27;20079;-79
2024/01/07 04:05:25;;;;;;;12.18;9.68;;;;;;;;;;5118105;27;20055;-79
2024/01/07 04:07:51;;;;;;;10.10;9.07;;;;;;;;;;5136262;27;20054;-79
2024/01/07 04:10:18;;;;;;;8.90;6.72;;;;;;;;;;5117861;27;20055;-79
2024/01/07 04:12:44;;;;;;;11.38;10.20;;;;;;;;;;5118244;27;20138;-79
2024/01/07 04:15:11;;;;;;;12.40;8.70;;;;;;;;;;5136133;27;20043;-79
2024/01/07 04:17:37;;;;;;;10.32;8.05;;;;;;;;;;5117617;27;20043;-79
2024/01/07 04:20:04;;;;;;;12.00;9.88;;;;;;;;;;5117573;27;20043;-79
2024/01/07 04:22:30;;;;;;;11.57;9.25;;;;;;;;;;5117876;27;20043;-78
2024/01/07 04:24:56;;;;;;;14.23;9.52;;;;;;;;;;5117379;27;20047;-79
2024/01/07 04:27:23;;;;;;;14.38;10.75;;;;;;;;;;5136051;27;20505;-79
2024/01/07 04:29:50;;;;;;;11.30;10.07;;;;;;;;;;5100726;27;20086;-79
2024/01/07 04:32:16;;;;;;;8.73;7.82;;;;;;;;;;5135718;27;20039;-79
2024/01/07 04:34:42;;;;;;;12.90;10.43;;;;;;;;;;5117649;27;20043;-79
2024/01/07 04:37:08;;;;;;;12.55;9.77;;;;;;;;;;5135635;27;20035;-79
2024/01/07 04:39:34;;;;;;;6.68;5.57;;;;;;;;;;5117674;27;20039;-79
2024/01/07 04:42:00;;;;;;;9.00;8.18;;;;;;;;;;5116746;27;20043;-79
2024/01/07 04:44:26;;;;;;;11.43;8.68;;;;;;;;;;5100126;27;20077;-79
2024/01/07 04:46:52;;;;;;;10.15;9.15;;;;;;;;;;5135629;27;20063;-79
2024/01/07 04:49:18;;;;;;;10.95;9.80;;;;;;;;;;5135437;27;20043;-79
2024/01/07 04:51:44;;;;;;;10.45;9.32;;;;;;;;;;5135277;27;20097;-79
2024/01/07 04:54:10;;;;;;;11.13;7.80;;;;;;;;;;5116458;27;20050;-79
2024/01/07 04:56:36;;;;;;;10.20;8.50;;;;;;;;;;5115839;27;20134;-79
2024/01/07 04:59:03;;;;;;;11.10;8.90;;;;;;;;;;5134455;27;20054;-79
2024/01/07 05:01:29;;;;;;;11.38;10.05;;;;;;;;;;5135259;27;20086;-79
2024/01/07 05:03:55;;;;;;;11.18;10.02;;;;;;;;;;5135182;27;20099;-79
2024/01/07 05:06:21;;;;;;;8.25;6.72;;;;;;;;;;5116770;27;20135;-79
2024/01/07 05:08:47;;;;;;;9.48;6.85;;;;;;;;;;5135034;27;20133;-79
2024/01/07 05:11:13;;;;;;;11.70;10.02;;;;;;;;;;5135286;27;20050;-79
2024/01/07 05:13:39;;;;;;;11.50;9.77;;;;;;;;;;5135008;27;20099;-79
2024/01/07 05:16:05;;;;;;;9.07;7.75;;;;;;;;;;5116881;27;20058;-79
2024/01/07 05:18:31;;;;;;;8.55;6.80;;;;;;;;;;5134894;27;20455;-79
2024/01/07 05:20:57;;;;;;;8.82;6.85;;;;;;;;;;5135377;27;20051;-79
2024/01/07 05:23:23;;;;;;;10.23;7.93;;;;;;;;;;5116395;27;20047;-79
2024/01/07 05:25:49;;;;;;;8.05;7.25;;;;;;;;;;5116800;27;20156;-79
2024/01/07 05:28:19;;;;;;;8.27;6.95;;;;;;;;;;5134911;27;20051;-79
2024/01/07 05:30:45;;;;;;;7.95;5.18;;;;;;;;;;5135453;27;20093;-79
2024/01/07 05:33:12;;;;;;;6.15;5.43;;;;;;;;;;5099375;28;20054;-79
2024/01/07 05:35:38;;;;;;;7.70;6.90;;;;;;;;;;5116526;27;20047;-79
2024/01/07 05:38:04;;;;;;;8.13;6.70;;;;;;;;;;5134500;27;20115;-79
2024/01/07 05:40:30;;;;;;;7.15;5.38;;;;;;;;;;5134713;27;20047;-79
2024/01/07 05:42:56;;;;;;;7.50;5.88;;;;;;;;;;5116575;28;20099;-79
2024/01/07 05:45:22;;;;;;;7.68;5.65;;;;;;;;;;5112331;28;20052;-79
2024/01/07 05:47:48;;;;;;;7.13;6.45;;;;;;;;;;5113207;28;20126;-79
2024/01/07 05:50:15;;;;;;;9.18;6.43;;;;;;;;;;5114494;28;20044;-79
2024/01/07 05:52:43;;;;;;;8.35;7.30;;;;;;;;;;5112986;28;20058;-79
2024/01/07 05:55:09;;;;;;;8.57;7.20;;;;;;;;;;5117495;28;20051;-79
2024/01/07 05:57:35;;;;;;;8.73;7.40;;;;;;;;;;5100310;28;20128;-79
2024/01/07 06:00:01;;;;;;;10.05;7.00;;;;;;;;;;5116972;28;20051;-79
2024/01/07 06:02:27;;;;;;;7.22;5.95;;;;;;;;;;5118054;28;20400;-79
2024/01/07 06:04:53;;;;;;;7.13;5.63;;;;;;;;;;5117844;28;20119;-79
2024/01/07 06:07:19;;;;;;;4.95;2.55;;;;;;;;;;5116821;28;20035;-79
2024/01/07 06:09:45;;;;;;;5.93;3.08;;;;;;;;;;5117185;28;20044;-79
2024/01/07 06:12:11;;;;;;;5.03;4.38;;;;;;;;;;5117973;28;20130;-79
2024/01/07 06:14:37;;;;;;;5.65;3.65;;;;;;;;;;5117898;28;20047;-79
2024/01/07 06:17:04;;;;;;;4.80;3.88;;;;;;;;;;5117717;28;20040;-79
2024/01/07 06:19:30;;;;;;;3.60;3.15;;;;;;;;;;5116589;28;20044;-79
2024/01/07 06:21:56;;;;;;;5.22;3.72;;;;;;;;;;5117743;28;20051;-79
2024/01/07 06:24:22;;;;;;;4.35;1.90;;;;;;;;;;5117366;28;20044;-79
2024/01/07 06:26:48;;;;;;;3.90;2.20;;;;;;;;;;5116705;28;20054;-79
2024/01/07 06:29:14;;;;;;;3.70;2.53;;;;;;;;;;5099799;28;20058;-78
2024/01/07 06:31:45;;;;;;;5.45;2.08;;;;;;;;;;5116571;28;20047;-79
2024/01/07 06:34:13;;;;;;;3.05;1.63;;;;;;;;;;5116551;28;20056;-79
2024/01/07 06:36:41;;;;;;;5.65;2.40;;;;;;;;;;5117495;28;20061;-79
2024/01/07 06:39:08;;;;;;;5.25;2.42;;;;;;;;;;5117383;28;20122;-79
2024/01/07 06:41:34;;;;;;;2.38;2.10;;;;;;;;;;5117424;28;20062;-79
2024/01/07 06:44:00;;;;;;;2.75;1.85;;;;;;;;;;5119361;27;20437;-79
2024/01/07 06:46:26;;;;;;;2.42;1.63;;;;;;;;;;5119732;27;20126;-79
2024/01/07 06:48:52;;;;;;;2.60;1.65;;;;;;;;;;5137785;27;20043;-79
2024/01/07 06:51:18;;;;;;;1.90;1.33;;;;;;;;;;5119673;27;20078;-78
2024/01/07 06:53:44;;;;;;;2.90;1.52;;;;;;;;;;5137364;27;20050;-79
2024/01/07 06:56:10;;;;;;;1.30;0.50;;;;;;;;;;5137650;27;20039;-79
2024/01/07 06:58:37;;;;;;;2.33;1.98;;;;;;;;;;5137693;27;20403;-79
2024/01/07 07:01:03;;;;;;;3.05;1.35;;;;;;;;;;5137609;27;20050;-79
2024/01/07 07:03:29;;;;;;;3.95;1.15;;;;;;;;;;5118492;27;20039;-79
2024/01/07 07:05:55;;;;;;;1.98;0.82;;;;;;;;;;5116457;28;20083;-79
2024/01/07 07:08:21;;;;;;;2.22;1.13;;;;;;;;;;5098870;28;20062;-79
2024/01/07 07:10:47;;;;;;;1.58;1.08;;;;;;;;;;5116818;28;20044;-79
2024/01/07 07:13:14;;;;;;;1.70;1.10;;;;;;;;;;5116712;28;20039;-79
2024/01/07 07:15:40;;;;;;;4.10;1.27;;;;;;;;;;5082090;28;20399;-79
2024/01/07 07:18:06;;;;;;;2.00;0.85;;;;;;;;;;5116507;28;20048;-79
2024/01/07 07:20:32;;;;;;;2.92;1.38;;;;;;;;;;5098624;28;20445;-79
2024/01/07 07:22:58;;;;;;;2.10;0.80;;;;;;;;;;5116600;28;20086;-79
2024/01/07 07:25:24;;;;;;;2.13;0.90;;;;;;;;;;5116119;28;20101;-79
2024/01/07 07:27:50;;;;;;;1.92;0.93;;;;;;;;;;5098150;28;20050;-79
2024/01/07 07:30:16;;;;;;;1.67;1.05;;;;;;;;;;5098025;28;20048;-79
2024/01/07 07:32:42;;;;;;;4.03;1.20;;;;;;;;;;5116376;28;20085;-79
2024/01/07 07:35:08;;;;;;;1.35;1.08;;;;;;;;;;5098418;28;20163;-79
2024/01/07 07:37:34;;;;;;;3.28;1.10;;;;;;;;;;5098140;28;20043;-79
2024/01/07 07:40:00;;;;;;;1.92;0.90;;;;;;;;;;5116211;28;20048;-79
2024/01/07 07:42:26;;;;;;;1.88;1.33;;;;;;;;;;5116146;28;20046;-79
2024/01/07 07:44:52;;;;;;;2.78;0.98;;;;;;;;;;5081235;28;20399;-79
2024/01/07 07:47:19;;;;;;;1.83;0.95;;;;;;;;;;5116386;28;20043;-79
2024/01/07 07:49:45;;;;;;;1.95;1.00;;;;;;;;;;5098117;28;20166;-79
2024/01/07 07:52:14;;;;;;;2.50;0.93;;;;;;;;;;5116172;28;20052;-79
2024/01/07 07:54:40;;;;;;;1.52;0.82;;;;;;;;;;5115413;28;20051;-79
2024/01/07 07:57:06;;;;;;;1.00;0.85;;;;;;;;;;5116520;28;20050;-79
2024/01/07 07:59:32;;;;;;;1.42;0.80;;;;;;;;;;5097878;28;20043;-79
2024/01/07 08:01:59;;;;;;;1.98;0.90;;;;;;;;;;5081263;28;20048;-79
2024/01/07 08:04:26;;;;;;;2.72;0.70;;;;;;;;;;5098252;28;20051;-79
2024/01/07 08:06:52;;;;;;;1.48;0.47;;;;;;;;;;5115592;28;20044;-79
2024/01/07 08:09:18;;;;;;;2.03;1.02;;;;;;;;;;5115621;28;20047;-79
2024/01/07 08:11:44;;;;;;;1.45;0.80;;;;;;;;;;5115530;28;20047;-79
2024/01/07 08:14:10;;;;;;;1.50;1.00;;;;;;;;;;5097577;28;20058;-79
2024/01/07 08:16:36;;;;;;;1.30;0.63;;;;;;;;;;5132215;27;20514;-79
2024/01/07 08:19:03;;;;;;;2.88;0.90;;;;;;;;;;5118042;27;20051;-79
2024/01/07 08:21:29;;;;;;;3.50;0.77;;;;;;;;;;5136010;27;20096;-79
2024/01/07 08:23:55;;;;;;;0.80;0.50;;;;;;;;;;5135488;27;20049;-79
2024/01/07 08:26:21;;;;;;;2.70;0.75;;;;;;;;;;5135939;27;20043;-79
2024/01/07 08:28:48;;;;;;;1.30;0.50;;;;;;;;;;5135836;27;20051;-79
2024/01/07 08:31:14;;;;;;;1.30;0.65;;;;;;;;;;5135991;27;20043;-79
2024/01/07 08:33:41;;;;;;;0.90;0.57;;;;;;;;;;5117465;27;20144;-79
2024/01/07 08:36:07;;;;;;;1.67;0.32;;;;;;;;;;5135374;27;20503;-79
2024/01/07 08:38:34;;;;;;;1.52;0.43;;;;;;;;;;5135609;27;20047;-79
2024/01/07 08:41:00;;;;;;;0.90;0.60;;;;;;;;;;5117550;27;20129;-78
2024/01/07 08:43:26;;;;;;;1.75;0.40;;;;;;;;;;5117857;27;20092;-79
2024/01/07 08:45:52;;;;;;;0.70;0.30;;;;;;;;;;5117075;27;20062;-79
2024/01/07 08:48:18;;;;;;;0.80;0.40;;;;;;;;;;5135438;27;20086;-79
2024/01/07 08:50:46;;;;;;;1.10;0.35;;;;;;;;;;5117350;27;20074;-79
2024/01/07 08:53:12;;;;;;;1.10;0.40;;;;;;;;;;5117081;27;20126;-78
2024/01/07 08:55:38;;;;;;;0.88;0.30;;;;;;;;;;5135628;27;20449;-78
2024/01/07 08:58:06;;;;;;;1.60;0.40;;;;;;;;;;5135238;27;20130;-78
2024/01/07 09:00:32;;;;;;;1.58;0.30;;;;;;;;;;5135258;27;20104;-79
2024/01/07 09:02:58;;;;;;;2.05;0.50;;;;;;;;;;5135270;27;20043;-78
2024/01/07 09:05:24;;;;;;;0.93;0.32;;;;;;;;;;5116861;27;20050;-79
2024/01/07 09:07:50;;;;;;;0.90;0.25;;;;;;;;;;5100097;27;20055;-79
2024/01/07 09:10:18;;;;;;;0.85;0.40;;;;;;;;;;5135154;27;20043;-79
2024/01/07 09:12:45;;;;;;;0.95;0.45;;;;;;;;;;5117202;27;20461;-79
2024/01/07 09:15:11;;;;;;;0.90;0.20;;;;;;;;;;5117000;27;20126;-79
2024/01/07 09:17:38;;;;;;;0.60;0.30;;;;;;;;;;5116890;27;20047;-79
2024/01/07 09:20:07;;;;;;;0.63;0.35;;;;;;;;;;5117365;27;20146;-79
2024/01/07 09:22:33;;;;;;;1.50;0.30;;;;;;;;;;5117061;27;20093;-79
2024/01/07 09:24:59;;;;;;;1.95;0.40;;;;;;;;;;5134450;27;20053;-79
2024/01/07 09:27:25;;;;;;;1.25;0.30;;;;;;;;;;5096635;27;20514;-79
2024/01/07 09:29:51;;;;;;;0.40;0.20;;;;;;;;;;5133936;27;20051;-79
2024/01/07 09:32:18;;;;;;;1.75;0.30;;;;;;;;;;5125977;27;20526;-79
2024/01/07 09:34:44;;;;;;;1.20;0.30;;;;;;;;;;5096215;28;20452;-78
2024/01/07 09:37:10;;;;;;;1.67;0.50;;;;;;;;;;5114141;28;20434;-78
2024/01/07 09:39:40;;;;;;;2.05;0.30;;;;;;;;;;5096285;28;20058;-79
2024/01/07 09:42:08;;;;;;;0.80;0.40;;;;;;;;;;5096259;28;20051;-79
2024/01/07 09:44:34;;;;;;;0.60;0.30;;;;;;;;;;5069377;28;20060;-79
2024/01/07 09:47:00;;;;;;;2.45;0.35;;;;;;;;;;5072413;28;20040;-78
2024/01/07 09:49:27;;;;;;;1.88;0.30;;;;;;;;;;5072585;28;20070;-79
2024/01/07 09:51:58;;;;;;;1.15;0.38;;;;;;;;;;5073493;28;20121;-81
2024/01/07 09:54:24;;;;;;;2.25;0.20;;;;;;;;;;5072347;28;20428;-80
2024/01/07 09:56:56;;;;;;;1.48;0.30;;;;;;;;;;5055959;28;20392;-79
2024/01/07 09:59:23;;;;;;;1.33;0.30;;;;;;;;;;5073438;28;20048;-80
2024/01/07 10:01:49;;;;;;;0.50;0.30;;;;;;;;;;5073305;28;20052;-81
2024/01/07 10:04:15;;;;;;;1.30;0.32;;;;;;;;;;5073222;28;20045;-81
2024/01/07 10:06:41;;;;;;;0.50;0.30;;;;;;;;;;5071926;28;20051;-81
2024/01/07 10:09:08;;;;;;;1.10;0.30;;;;;;;;;;5072462;28;20441;-80
2024/01/07 10:11:34;;;;;;;2.15;0.40;;;;;;;;;;5072482;28;20045;-81
2024/01/07 10:14:00;;;;;;;5.78;0.32;;;;;;;;;;5072493;28;20051;-81
2024/01/07 10:16:26;;;;;;;1.30;0.40;;;;;;;;;;5072346;28;20052;-81
2024/01/07 10:18:52;;;;;;;1.10;0.30;;;;;;;;;;5072364;28;20425;-79
2024/01/07 10:21:18;;;;;;;1.95;0.30;;;;;;;;;;5073445;28;20472;-79
2024/01/07 10:23:44;;;;;;;2.03;0.30;;;;;;;;;;5055153;28;20079;-78
2024/01/07 10:26:10;;;;;;;1.60;0.40;;;;;;;;;;5097353;28;20044;-78
2024/01/07 10:28:37;;;;;;;1.60;0.30;;;;;;;;;;5093120;28;20073;-78
2024/01/07 10:31:04;;;;;;;0.63;0.45;;;;;;;;;;5100679;28;20521;-78
2024/01/07 10:33:33;;;;;;;1.25;0.30;;;;;;;;;;5107484;28;20052;-78
2024/01/07 10:36:06;;;;;;;0.60;0.30;;;;;;;;;;5107783;28;20104;-78
2024/01/07 10:38:35;;;;;;;2.53;0.40;;;;;;;;;;5113623;28;20047;-78
2024/01/07 10:41:02;;;;;;;1.98;0.40;;;;;;;;;;5117017;28;20090;-78
2024/01/07 10:43:30;;;;;;;1.50;0.50;;;;;;;;;;5088078;28;20450;-78
2024/01/07 10:45:56;;;;;;;1.65;0.38;;;;;;;;;;5113900;28;20083;-78
2024/01/07 10:48:26;;;;;;;1.15;0.30;;;;;;;;;;5116409;28;20048;-78
2024/01/07 10:50:53;;;;;;;0.45;0.22;;;;;;;;;;5116768;28;20456;-78
2024/01/07 10:53:22;;;;;;;1.42;0.20;;;;;;;;;;5117616;28;20118;-78
2024/01/07 10:56:01;;;;;;;1.70;0.28;;;;;;;;;;5117587;28;20043;-78
2024/01/07 10:58:27;;;;;;;1.10;0.30;;;;;;;;;;5116804;28;20433;-78
2024/01/07 11:00:55;;;;;;;1.48;0.20;;;;;;;;;;5117151;28;20133;-78
2024/01/07 11:03:28;;;;;;;1.50;0.30;;;;;;;;;;5117022;28;20058;-78
2024/01/07 11:06:00;;;;;;;1.40;0.25;;;;;;;;;;5115773;28;20036;-79
2024/01/07 11:08:29;;;;;;;0.85;0.30;;;;;;;;;;5115909;28;20047;-79
2024/01/07 11:11:07;;;;;;;1.33;0.30;;;;;;;;;;5116871;28;20140;-79
2024/01/07 11:13:38;;;;;;;1.35;0.20;;;;;;;;;;5117101;28;20411;-79
2024/01/07 11:16:04;;;;;;;0.88;0.25;;;;;;;;;;5115617;28;20044;-79
2024/01/07 11:18:33;;;;;;;0.75;0.30;;;;;;;;;;5116811;28;20054;-79
2024/01/07 11:21:03;;;;;;;0.90;0.30;;;;;;;;;;5115410;28;20549;-79
2024/01/07 11:23:29;;;;;;;0.90;0.30;;;;;;;;;;5115647;27;20040;-79
2024/01/07 11:25:56;;;;;;;1.85;0.30;;;;;;;;;;5116105;28;20043;-78
2024/01/07 11:28:42;;;;;;;2.53;0.40;;;;;;;;;;5116571;28;20044;-79
2024/01/07 11:31:08;;;;;;;0.88;0.30;;;;;;;;;;5116753;28;20047;-79
2024/01/07 11:33:37;;;;;;;1.15;0.50;;;;;;;;;;5116467;28;20047;-79
2024/01/07 11:36:03;;;;;;;1.50;0.32;;;;;;;;;;5115419;28;20139;-79
2024/01/07 11:38:29;;;;;;;2.60;0.50;;;;;;;;;;5116318;28;20059;-79
2024/01/07 11:40:57;;;;;;;1.50;0.38;;;;;;;;;;5115010;28;20048;-79
2024/01/07 11:43:23;;;;;;;1.58;0.35;;;;;;;;;;5115155;28;20075;-79
2024/01/07 11:45:53;;;;;;;3.25;0.45;;;;;;;;;;5134598;27;20055;-79
2024/01/07 11:48:19;;;;;;;1.42;0.30;;;;;;;;;;5136649;27;20100;-79
2024/01/07 11:50:45;;;;;;;0.93;0.30;;;;;;;;;;5136625;27;20372;-79
2024/01/07 11:53:14;;;;;;;1.88;0.30;;;;;;;;;;5118507;27;20183;-79
2024/01/07 11:55:41;;;;;;;1.45;0.50;;;;;;;;;;5136192;27;20551;-79
2024/01/07 11:58:07;;;;;;;1.88;0.30;;;;;;;;;;5136534;27;20043;-79
2024/01/07 12:00:33;;;;;;;0.47;0.28;;;;;;;;;;5136484;27;20046;-79
2024/01/07 12:03:03;;;;;;;1.52;0.20;;;;;;;;;;5136358;27;20130;-80
2024/01/07 12:05:29;;;;;;;1.05;0.28;;;;;;;;;;5117707;27;20486;-79
2024/01/07 12:07:56;;;;;;;0.73;0.20;;;;;;;;;;5101509;27;20096;-79
2024/01/07 12:10:23;;;;;;;2.47;0.52;;;;;;;;;;5118707;27;20360;-79
2024/01/07 12:12:50;;;;;;;3.75;0.30;;;;;;;;;;5136200;27;20055;-79
2024/01/07 12:15:17;;;;;;;1.08;0.30;;;;;;;;;;5118557;27;20364;-79
2024/01/07 12:17:48;;;;;;;0.82;0.30;;;;;;;;;;5117763;27;20108;-79
2024/01/07 12:20:15;;;;;;;1.70;0.47;;;;;;;;;;5118081;27;20074;-79
2024/01/07 12:22:41;;;;;;;1.30;0.40;;;;;;;;;;5136022;27;20054;-79
2024/01/07 12:25:08;;;;;;;1.27;0.50;;;;;;;;;;5135610;27;20047;-79
2024/01/07 12:27:37;;;;;;;2.67;0.30;;;;;;;;;;5135842;27;20394;-79
2024/01/07 12:30:05;;;;;;;0.90;0.40;;;;;;;;;;5135886;27;20043;-79
2024/01/07 12:32:31;;;;;;;0.82;0.40;;;;;;;;;;5134934;27;20103;-79
2024/01/07 12:34:59;;;;;;;5.82;0.50;;;;;;;;;;5117522;27;20479;-79
2024/01/07 12:37:27;;;;;;;1.77;0.52;;;;;;;;;;5100580;27;20055;-79
2024/01/07 12:39:53;;;;;;;1.55;0.30;;;;;;;;;;5117369;27;20479;-84
2024/01/07 12:42:21;;;;;;;0.70;0.30;;;;;;;;;;5117013;27;20054;-83
2024/01/07 12:44:48;;;;;;;2.90;0.40;;;;;;;;;;5083602;27;20047;-79
2024/01/07 12:47:15;;;;;;;2.35;0.60;;;;;;;;;;5117116;27;20054;-79
2024/01/07 12:49:42;;;;;;;0.75;0.50;;;;;;;;;;5135138;27;20043;-79
2024/01/07 12:52:09;;;;;;;2.20;0.47;;;;;;;;;;5117084;27;20130;-79
2024/01/07 12:54:35;;;;;;;0.77;0.40;;;;;;;;;;5135006;27;20126;-80
2024/01/07 12:57:01;;;;;;;0.77;0.47;;;;;;;;;;5135293;27;20051;-79
2024/01/07 12:59:27;;;;;;;1.45;0.57;;;;;;;;;;5135106;27;20487;-79
2024/01/07 13:01:53;;;;;;;1.35;0.50;;;;;;;;;;5116851;28;20043;-80
2024/01/07 13:04:20;;;;;;;1.65;0.57;;;;;;;;;;5117369;27;20054;-79
2024/01/07 13:06:46;;;;;;;2.15;0.65;;;;;;;;;;5124357;27;20119;-80
2024/01/07 13:09:12;;;;;;;2.55;0.77;;;;;;;;;;5095904;28;20043;-79
2024/01/07 13:11:38;;;;;;;2.10;0.50;;;;;;;;;;5123908;27;20061;-79
2024/01/07 13:14:04;;;;;;;3.42;0.80;;;;;;;;;;5134065;27;20117;-79
2024/01/07 13:16:30;;;;;;;1.35;1.10;;;;;;;;;;5133740;27;20047;-79
2024/01/07 13:18:57;;;;;;;1.80;0.45;;;;;;;;;;5116117;27;20102;-79
2024/01/07 13:21:23;;;;;;;3.13;0.75;;;;;;;;;;5115945;27;20046;-79
2024/01/07 13:23:49;;;;;;;2.17;0.90;;;;;;;;;;5133714;27;20066;-79
2024/01/07 13:26:16;;;;;;;1.80;0.85;;;;;;;;;;5123678;27;20122;-79
2024/01/07 13:28:42;;;;;;;3.80;0.90;;;;;;;;;;5115990;27;20078;-79
2024/01/07 13:31:12;;;;;;;1.02;0.55;;;;;;;;;;5114998;27;20092;-79
2024/01/07 13:33:38;;;;;;;1.17;0.65;;;;;;;;;;5135041;27;20050;-79
2024/01/07 13:36:08;;;;;;;1.33;0.65;;;;;;;;;;5131407;27;20043;-79
2024/01/07 13:38:35;;;;;;;2.90;0.70;;;;;;;;;;5133808;27;20130;-79
2024/01/07 13:41:01;;;;;;;2.83;1.05;;;;;;;;;;5132838;27;20200;-79
2024/01/07 13:43:29;;;;;;;2.88;1.02;;;;;;;;;;5133757;28;20043;-79
2024/01/07 13:45:55;;;;;;;2.03;0.77;;;;;;;;;;5114505;28;20047;-79
2024/01/07 13:48:21;;;;;;;1.73;0.70;;;;;;;;;;5133739;28;20051;-79
2024/01/07 13:50:49;;;;;;;0.80;0.70;;;;;;;;;;5133839;28;20433;-80
2024/01/07 13:53:15;;;;;;;3.08;1.20;;;;;;;;;;5133957;28;20411;-79
2024/01/07 13:55:41;;;;;;;2.55;1.50;;;;;;;;;;5132608;28;20047;-79
2024/01/07 13:58:07;;;;;;;3.75;1.65;;;;;;;;;;5133667;28;20039;-79
2024/01/07 14:00:33;;;;;;;3.58;2.08;;;;;;;;;;5134550;28;20065;-79
2024/01/07 14:02:59;;;;;;;5.55;2.45;;;;;;;;;;5134426;28;20053;-79
2024/01/07 14:05:25;;;;;;;4.53;1.88;;;;;;;;;;5134390;28;20043;-79
2024/01/07 14:07:51;;;;;;;4.38;1.85;;;;;;;;;;5134296;28;20394;-79
2024/01/07 14:10:19;;;;;;;3.03;1.92;;;;;;;;;;5153733;27;20122;-78
2024/01/07 14:12:45;;;;;;;3.60;1.92;;;;;;;;;;5136844;27;20484;-79
2024/01/07 14:15:12;;;;;;;3.03;1.83;;;;;;;;;;5121952;27;20061;-82
2024/01/07 14:17:39;;;;;;;2.42;1.90;;;;;;;;;;5131038;27;20082;-80
2024/01/07 14:20:06;;;;;;;2.50;1.45;;;;;;;;;;5098878;28;20043;-79
2024/01/07 14:22:32;;;;;;;3.30;1.52;;;;;;;;;;5117985;27;20049;-79
2024/01/07 14:24:58;;;;;;;3.53;1.80;;;;;;;;;;5118876;27;20043;-79
2024/01/07 14:27:24;;;;;;;3.10;1.83;;;;;;;;;;5118939;27;20051;-79
2024/01/07 14:29:50;;;;;;;4.47;1.95;;;;;;;;;;5137282;27;20046;-79
2024/01/07 14:32:16;;;;;;;3.33;2.05;;;;;;;;;;5137514;27;20373;-79